| time (UTC) | temp F | wind direction | speed knots | gust knots | rain 1hr in | rain 24hr in | rain mn in | humidity % | barometer mb |
| 20260507064519 | 63 | 173 | 0.0 | 0.0 | 0.05 | 2.38 | 0.70 | 98 | 1007.5 |
| 20260507063018 | 63 | 181 | 0.0 | 0.0 | 0.08 | 2.38 | 0.70 | 98 | 1006.9 |
| 20260507061529 | 63 | 181 | 0.0 | 0.0 | 0.09 | 2.37 | 0.70 | 98 | 1008.0 |
| 20260507060030 | 63 | 181 | 0.0 | 0.0 | 0.09 | 2.34 | 0.66 | 98 | 1008.3 |
| 20260507054524 | 63 | 181 | 0.0 | 0.0 | 0.27 | 2.33 | 0.65 | 97 | 1008.4 |
| 20260507053025 | 63 | 181 | 0.0 | 0.0 | 0.45 | 2.29 | 0.62 | 97 | 1008.8 |
| 20260507051525 | 63 | 181 | 0.0 | 0.0 | 0.56 | 2.27 | 0.60 | 97 | 1008.9 |
| 20260507050032 | 63 | 181 | 0.0 | 0.0 | 0.61 | 2.25 | 0.56 | 97 | 1009.0 |
| 20260507044541 | 63 | 181 | 0.0 | 0.0 | 0.43 | 2.04 | 0.39 | 97 | 1009.8 |
| 20260507043046 | 63 | 181 | 0.0 | 0.0 | 0.31 | 1.84 | 0.17 | 96 | 1009.3 |
| 20260507041546 | 63 | 181 | 0.0 | 0.0 | 0.27 | 1.71 | 0.04 | 96 | 1008.7 |
| 20260507040052 | 63 | 181 | 0.0 | 0.0 | 0.34 | 1.64 | 1.65 | 96 | 1009.1 |
| 20260507034547 | 63 | 181 | 0.0 | 0.0 | 0.52 | 1.62 | 1.62 | 96 | 1009.3 |
| 20260507033049 | 63 | 58 | 0.0 | 0.0 | 0.61 | 1.53 | 1.54 | 96 | 1009.6 |
| 20260507031549 | 63 | 50 | 0.0 | 0.0 | 0.79 | 1.44 | 1.45 | 96 | 1009.4 |
| 20260507030057 | 63 | 50 | 0.0 | 0.0 | 0.65 | 1.30 | 1.30 | 95 | 1009.7 |
| 20260507024549 | 64 | 350 | 0.0 | 0.0 | 0.52 | 1.09 | 1.11 | 95 | 1009.9 |
| 20260507023052 | 64 | 336 | 0.0 | 4.3 | 0.43 | 0.92 | 0.93 | 94 | 1008.9 |
| 20260507021615 | 65 | 360 | 0.0 | 0.0 | 0.18 | 0.65 | 0.65 | 94 | 1009.1 |
| 20260507020020 | 67 | 11 | 0.0 | 0.0 | 0.19 | 0.65 | 0.65 | 94 | 1008.7 |
| 20260507014526 | 69 | 350 | 0.0 | 1.7 | 0.14 | 0.56 | 0.56 | 96 | 1008.5 |
| 20260507013028 | 69 | 155 | 0.0 | 0.0 | 0.06 | 0.48 | 0.49 | 96 | 1009.1 |
| 20260507011531 | 70 | 155 | 0.0 | 0.0 | 0.05 | 0.47 | 0.47 | 95 | 1008.7 |
| 20260507010029 | 70 | 155 | 0.0 | 0.0 | 0.04 | 0.46 | 0.46 | 95 | 1008.5 |
| 20260507004531 | 70 | 155 | 0.0 | 0.0 | 0.02 | 0.43 | 0.43 | 95 | 1008.3 |
| 20260507003029 | 70 | 155 | 0.0 | 0.0 | 0.02 | 0.42 | 0.42 | 95 | 1008.3 |
| 20260507001535 | 70 | 155 | 0.0 | 0.0 | 0.06 | 0.42 | 0.42 | 94 | 1008.4 |
| 20260507000034 | 70 | 171 | 0.0 | 0.0 | 0.21 | 0.42 | 0.42 | 94 | 1008.4 |
| 20260506234537 | 70 | 171 | 0.0 | 0.0 | 0.41 | 0.41 | 0.41 | 93 | 1008.5 |
| 20260506233039 | 70 | 171 | 0.0 | 0.0 | 0.40 | 0.40 | 0.40 | 92 | 1008.6 |
| 20260506231540 | 71 | 171 | 0.0 | 0.0 | 0.36 | 0.36 | 0.36 | 90 | 1008.6 |
| 20260506230043 | 74 | 171 | 0.0 | 0.0 | 0.18 | 0.18 | 0.22 | 84 | 1007.9 |
| 20260506224544 | 75 | 152 | 0.0 | 0.0 | 0.00 | 0.00 | 0.00 | 77 | 1007.2 |
| 20260506223056 | 76 | 152 | 0.0 | 0.0 | 0.00 | 0.00 | 0.00 | 77 | 1007.9 |
| 20260506223002 | 76 | 152 | 0.0 | 0.0 | 0.00 | 0.00 | 0.00 | 77 | 1007.9 |
| 20260506221559 | 76 | 152 | 0.0 | 0.0 | 0.00 | 0.00 | 0.00 | 77 | 1008.2 |
| 20260506221505 | 76 | 152 | 0.0 | 0.0 | 0.00 | 0.00 | 0.00 | 77 | 1008.2 |
| 20260506220011 | 76 | 152 | 0.0 | 0.0 | 0.00 | 0.00 | 0.00 | 76 | 1007.9 |
| 20260506214549 | 76 | 152 | 0.0 | 0.0 | 0.00 | 0.00 | 0.00 | 76 | 1007.9 |
| 20260506213015 | 77 | 152 | 0.0 | 0.0 | 0.00 | 0.00 | 0.00 | 74 | 1007.8 |
| 20260506211512 | 77 | 30 | 0.0 | 0.0 | 0.00 | 0.00 | 0.00 | 73 | 1007.7 |
| 20260506210012 | 76 | 5 | 0.0 | 0.0 | 0.00 | 0.00 | 0.00 | 73 | 1008.0 |
| 20260506204514 | 76 | 5 | 0.0 | 0.0 | 0.00 | 0.00 | 0.00 | 73 | 1008.1 |
| 20260506203014 | 77 | 340 | 0.0 | 0.0 | 0.00 | 0.00 | 0.00 | 72 | 1008.5 |
| 20260506201523 | 77 | 53 | 0.0 | 0.9 | 0.00 | 0.00 | 0.00 | 71 | 1008.6 |
| 20260506200025 | 77 | 103 | 0.0 | 0.0 | 0.00 | 0.00 | 0.00 | 71 | 1008.8 |
| 20260506194520 | 77 | 111 | 0.0 | 0.0 | 0.00 | 0.00 | 0.00 | 72 | 1008.9 |
| 20260506193030 | 78 | 113 | 0.0 | 0.0 | 0.00 | 0.00 | 0.00 | 71 | 1009.4 |
| 20260506191550 | 78 | 113 | 0.0 | 1.7 | 0.00 | 0.00 | 0.00 | 70 | 1009.5 |
| 20260506190032 | 77 | 76 | 0.0 | 0.0 | 0.00 | 0.00 | 0.00 | 71 | 1009.8 |
| 20260506184536 | 77 | 76 | 0.0 | 0.0 | 0.00 | 0.00 | 0.00 | 72 | 1010.1 |
| 20260506183033 | 77 | 153 | 0.0 | 0.0 | 0.00 | 0.00 | 0.00 | 70 | 1010.3 |
| 20260506181540 | 78 | 337 | 0.0 | 0.0 | 0.00 | 0.00 | 0.00 | 70 | 1010.3 |
| 20260506180047 | 78 | 336 | 0.0 | 0.0 | 0.00 | 0.00 | 0.00 | 68 | 1010.2 |
| 20260506174550 | 78 | 159 | 0.0 | 0.0 | 0.00 | 0.00 | 0.00 | 68 | 1010.0 |
| 20260506173107 | 78 | 107 | 0.0 | 0.0 | 0.00 | 0.00 | 0.00 | 70 | 1010.1 |
| 20260506171556 | 78 | 355 | 0.0 | 0.0 | 0.00 | 0.00 | 0.00 | 71 | 1009.9 |
| 20260506170050 | 77 | 20 | 0.0 | 0.0 | 0.00 | 0.00 | 0.00 | 70 | 1010.2 |
| 20260506164552 | 77 | 83 | 0.0 | 0.0 | 0.00 | 0.00 | 0.00 | 71 | 1010.2 |
| 20260506163104 | 75 | 319 | 0.0 | 0.0 | 0.00 | 0.00 | 0.00 | 72 | 1010.6 |
| 20260506161600 | 73 | 316 | 0.0 | 0.0 | 0.00 | 0.00 | 0.00 | 76 | 1010.8 |
| 20260506160019 | 73 | 315 | 0.0 | 0.0 | 0.00 | 0.00 | 0.00 | 76 | 1011.1 |
| 20260506154530 | 72 | 224 | 0.0 | 0.0 | 0.00 | 0.00 | 0.00 | 78 | 1011.0 |
| 20260506153022 | 69 | 221 | 0.0 | 0.0 | 0.00 | 0.00 | 0.00 | 81 | 1011.5 |
| 20260506151522 | 68 | 132 | 0.0 | 0.0 | 0.00 | 0.00 | 0.00 | 81 | 1011.8 |
| 20260506150021 | 68 | 131 | 0.0 | 0.0 | 0.00 | 0.00 | 0.00 | 81 | 1011.8 |
| 20260506144523 | 68 | 329 | 0.0 | 0.0 | 0.00 | 0.00 | 0.00 | 82 | 1011.8 |
| 20260506143032 | 68 | 329 | 0.0 | 0.0 | 0.00 | 0.00 | 0.00 | 82 | 1011.6 |
| 20260506141554 | 68 | 329 | 0.0 | 0.0 | 0.00 | 0.00 | 0.00 | 82 | 1011.5 |
| 20260506140100 | 67 | 329 | 0.0 | 0.0 | 0.00 | 0.00 | 0.00 | 82 | 1011.1 |
| 20260506134555 | 67 | 329 | 0.0 | 0.0 | 0.00 | 0.00 | 0.00 | 83 | 1010.6 |
| 20260506133059 | 67 | 301 | 0.0 | 0.0 | 0.00 | 0.00 | 0.00 | 82 | 1010.6 |
| 20260506131504 | 67 | 301 | 0.0 | 0.0 | 0.00 | 0.00 | 0.00 | 84 | 1010.6 |
| 20260506130007 | 67 | 292 | 0.0 | 0.0 | 0.00 | 0.00 | 0.00 | 84 | 1010.4 |
| 20260506124507 | 66 | 292 | 0.0 | 0.0 | 0.00 | 0.00 | 0.00 | 85 | 1010.3 |
| 20260506123011 | 66 | 293 | 0.0 | 0.0 | 0.00 | 0.00 | 0.00 | 85 | 1010.4 |
| 20260506121518 | 66 | 293 | 0.0 | 0.0 | 0.00 | 0.00 | 0.00 | 85 | 1010.4 |
| 20260506120110 | 66 | 285 | 0.0 | 0.0 | 0.00 | 0.00 | 0.00 | 85 | 1010.2 |
| 20260506120002 | 66 | 285 | 0.0 | 0.0 | 0.00 | 0.00 | 0.00 | 85 | 1010.3 |
| 20260506114519 | 66 | 285 | 0.0 | 0.0 | 0.00 | 0.00 | 0.00 | 85 | 1010.2 |
| 20260506113021 | 66 | 285 | 0.0 | 0.0 | 0.00 | 0.00 | 0.00 | 84 | 1010.0 |
| 20260506111528 | 66 | 285 | 0.0 | 0.0 | 0.00 | 0.00 | 0.00 | 84 | 1010.0 |
| 20260506110027 | 66 | 277 | 0.0 | 0.0 | 0.00 | 0.00 | 0.00 | 84 | 1009.9 |
| 20260506104529 | 66 | 277 | 0.0 | 0.0 | 0.00 | 0.00 | 0.00 | 84 | 1009.5 |
| 20260506103029 | 66 | 277 | 0.0 | 0.0 | 0.00 | 0.00 | 0.00 | 84 | 1009.4 |
| 20260506101536 | 66 | 277 | 0.0 | 0.0 | 0.00 | 0.00 | 0.00 | 83 | 1009.4 |
| 20260506100015 | 66 | 277 | 0.0 | 0.0 | 0.00 | 0.00 | 0.00 | 83 | 1008.9 |
| 20260506094521 | 66 | 277 | 0.0 | 0.0 | 0.00 | 0.00 | 0.00 | 82 | 1008.8 |
| 20260506093109 | 66 | 320 | 0.0 | 0.0 | 0.00 | 0.00 | 0.00 | 81 | 1008.8 |
| 20260506093003 | 66 | 320 | 0.0 | 0.0 | 0.00 | 0.00 | 0.00 | 81 | 1008.8 |
| 20260506091557 | 66 | 120 | 0.0 | 0.9 | 0.00 | 0.00 | 0.00 | 80 | 1008.7 |
| 20260506091503 | 66 | 120 | 0.0 | 0.9 | 0.00 | 0.00 | 0.00 | 80 | 1008.6 |
| 20260506090003 | 66 | 82 | 0.0 | 0.0 | 0.00 | 0.00 | 0.00 | 79 | 1008.6 |
| 20260506084515 | 67 | 58 | 0.0 | 0.0 | 0.00 | 0.00 | 0.00 | 77 | 1009.0 |
| 20260506083014 | 67 | 55 | 0.0 | 0.0 | 0.00 | 0.00 | 0.00 | 76 | 1008.6 |
| 20260506081518 | 67 | 173 | 0.0 | 0.0 | 0.00 | 0.00 | 0.00 | 74 | 1008.7 |
| 20260506073020 | 68 | 136 | 0.0 | 3.5 | 0.00 | 0.00 | 0.00 | 71 | 1009.1 |
| 20260506071526 | 68 | 286 | 0.0 | 0.0 | 0.00 | 0.00 | 0.00 | 71 | 1009.3 |